Jacksboro, Texas
Current Conditions -  °F | °C
As of 2:35 AM on Monday 22 Dec 2014 (Local Time) from KXBP Reporting Station
Clear Clear  
Wind Chill:   Ceiling: Unl
Heat Index: 10°   Visibility: 10mi
Dew Point:   Wind: 13mph
Humidity: 93%   Direction: 200°SSW
Pressure: 29.6"   Gusts: 21mph
Location:  33.22°N, 98.16°W
Report Text: KXBP 220835Z AUTO 20011G18KT 10SM CLR 10/09 A2960 RMK AO2 T00960085
Loading
Personal Weather Stations






























Interactive Weather Map New forecast layout! Learn more

10-Day Weather Forecast

Advertisements
Track Severe Weather on mobile